Medford, WI

5:50 PM CST on January 21, 2017 (GMT -0600)
near Northwest side of Medford | | Change Station
Active Advisory: Dense Fog Advisory

Elev 1470 ft 45.14 °N, 90.35 °W | Updated 9 minutes ago

Overcast
Overcast
35.6 °F
Feels Like 36 °F
N
0.0
Wind Variable Wind from SW
Gusts 0.0 mph

Today
High -- | Low -- °F
--% Chance of Precip.
Yesterday
High -- | Low -- °F
Precip. -- in
Pressure 29.45 in
Visibility 0.2 miles
Clouds Overcast 200 ft
Windchill 36 °F
Dew Point 33 °F
Humidity 89%
Rainfall 0.13 in
Snow Depth Not available.
7:32 AM 4:53 PM
Waning Crescent, 31% visible
METAR KMDZ 212335Z AUTO 15003KT 1/4SM FG OVC002 01/01 A2945 RMK AO2 T00120011
Pressure 29.45 in
Visibility 0.2 miles
Clouds Overcast 200 ft
Windchill 36 °F
Dew Point 33 °F
Humidity 89%
Rainfall 0.13 in
Snow Depth Not available.
7:32 AM 4:53 PM
Waning Crescent, 31% visible
METAR KMDZ 212335Z AUTO 15003KT 1/4SM FG OVC002 01/01 A2945 RMK AO2 T00120011

Get Your Daily Forecast Email!

Thanks for signing up!

Be on the lookout for a verification email in your inbox.

You'll start receiving the daily forecast at 8 AM.

×

10-Day Weather Forecast

Almanac

Astronomy

Jan. 21, 2017 Rise Set
Actual Time
Civil Twilight
Nautical Twilight
Astronomical Twilight
Moon
Length of Visible Light
Length of Day
Tomorrow will be .
, % of the Moon is Illuminated

Today's Extremes

State Highs State Lows

Community

WunderPhotos

Upload Photos

1,962,540 photos uploaded!

WunderBlog® & News

Nearby

Air Quality

  Air Quality AQ Index Pollutant
Not available.

Snow Depth

Station Depth Elevation

Earthquake Activity

City Distance Mag. Time & Date
Minimum magnitude displayed is 2.5.

Coastal Water Temperatures

Place Temperature

Stations

Nearby Weather Stations

Station Location Temp. Windchill Dew Point Humidity Wind Precip. Elev Updated Type
                   

Watches & Warnings

Dense Fog Advisory
Issued: 3:51 PM CST Jan. 21, 2017 – National Weather Service

... Dense fog advisory remains in effect until noon CST Sunday...

* periods of dense fog will continue through Sunday morning with
visibility reduced to near zero at times.

* Impacts... significantly reduced visibility at times impacting
travel.

Precautionary/preparedness actions...

A dense fog advisory means visibilities will frequently be
reduced to less than one quarter mile. If driving... slow down...
use your headlights... and leave plenty of distance ahead of you.



Lawrence